Time;durP1;ratioP1;P1;durP2;ratioP2;P2;SDS_P1;SDS_P2;PMS_P1;PMS_P2;Temp;Humidity;BMP_temperature;BMP_pressure;BME280_temperature;BME280_humidity;BME280_pressure;Samples;Min_cycle;Max_cycle;Signal;HPM_P1;HPM_P2
2023/04/22 00:02:15;;;;;;;;;;;10.40;60.30;;;5.74;100.00;94955.72;5013779;28;20363;-49
2023/04/22 00:04:42;;;;;;;;;;;10.40;60.40;;;5.72;100.00;94949.88;5030810;28;19908;-49
2023/04/22 00:07:08;;;;;;;;;;;10.40;60.40;;;5.67;100.00;94952.47;5033395;28;19928;-49
2023/04/22 00:09:34;;;;;;;;;;;10.30;60.50;;;5.66;100.00;94947.44;5031096;28;19909;-52
2023/04/22 00:12:01;;;;;;;;;;;10.30;61.30;;;5.52;100.00;94947.03;5032364;28;20003;-54
2023/04/22 00:14:27;;;;;;;;;;;10.30;60.60;;;5.29;100.00;94940.94;5031881;28;20367;-49
2023/04/22 00:16:52;;;;;;;;;;;10.20;60.50;;;5.34;100.00;94933.09;5031586;28;19915;-49
2023/04/22 00:19:18;;;;;;;;;;;10.10;60.40;;;5.26;100.00;94932.72;5032455;28;19912;-49
2023/04/22 00:21:44;;;;;;;;;;;10.10;60.50;;;5.22;100.00;94936.91;5031444;28;19962;-50
2023/04/22 00:24:10;;;;;;;;;;;10.00;60.40;;;5.18;100.00;94928.69;5032449;28;19908;-49
2023/04/22 00:26:35;;;;;;;;;;;9.90;60.60;;;5.21;100.00;94925.56;5031163;28;19908;-49
2023/04/22 00:29:01;;;;;;;;;;;9.90;60.70;;;5.20;100.00;94926.59;5021064;28;19909;-53
2023/04/22 00:31:27;;;;;;;;;;;9.80;60.90;;;5.17;100.00;94921.81;5012591;28;19990;-50
2023/04/22 00:33:53;;;;;;;;;;;9.80;61.00;;;5.13;100.00;94920.69;5011674;28;19916;-49
2023/04/22 00:36:18;;;;;;;;;;;9.80;61.00;;;5.12;100.00;94916.47;5012151;28;20022;-49
2023/04/22 00:38:51;;;;;;;;;;;9.70;61.10;;;5.20;100.00;94917.84;5011320;28;19917;-49
2023/04/22 00:41:17;;;;;;;;;;;9.80;61.40;;;5.22;100.00;94911.28;5012381;28;19909;-49
2023/04/22 00:43:43;;;;;;;;;;;9.80;61.50;;;5.21;100.00;94908.91;5012338;28;19909;-48
2023/04/22 00:46:09;;;;;;;;;;;9.80;61.60;;;5.24;100.00;94911.06;5011135;28;19909;-48
2023/04/22 00:48:37;;;;;;;;;;;9.70;61.50;;;5.22;100.00;94913.13;5012481;28;20394;-49
2023/04/22 00:51:04;;;;;;;;;;;9.70;61.50;;;5.19;100.00;94919.72;5011446;28;20391;-49
2023/04/22 00:53:30;;;;;;;;;;;9.80;61.70;;;5.16;100.00;94917.56;5012377;28;20483;-49
2023/04/22 00:55:56;;;;;;;;;;;9.80;61.60;;;5.20;100.00;94925.78;5011041;28;20019;-48
2023/04/22 00:58:24;;;;;;;;;;;9.70;61.60;;;5.21;100.00;94922.91;5004902;28;20002;-51
2023/04/22 01:00:51;;;;;;;;;;;9.80;61.70;;;5.26;100.00;94928.22;4992826;28;20368;-50
2023/04/22 01:03:19;;;;;;;;;;;9.70;61.70;;;5.36;100.00;94921.47;4999377;28;19920;-48
2023/04/22 01:05:47;;;;;;;;;;;9.80;61.90;;;5.44;100.00;94926.31;5011260;28;19909;-49
2023/04/22 01:08:13;;;;;;;;;;;9.80;62.00;;;5.44;100.00;94919.19;5012146;28;19916;-49
2023/04/22 01:10:41;;;;;;;;;;;9.80;61.90;;;5.39;100.00;94920.97;5011264;28;19913;-49
2023/04/22 01:13:07;;;;;;;;;;;9.90;61.90;;;5.33;100.00;94922.78;5011297;28;20297;-49
2023/04/22 01:15:33;;;;;;;;;;;9.90;61.80;;;5.27;100.00;94921.13;5011531;28;19962;-49
2023/04/22 01:18:03;;;;;;;;;;;9.90;61.70;;;5.23;100.00;94920.84;5012273;28;19909;-50
2023/04/22 01:20:29;;;;;;;;;;;9.80;61.60;;;5.23;100.00;94930.56;5010940;28;20342;-50
2023/04/22 01:22:56;;;;;;;;;;;9.80;61.70;;;5.15;100.00;94931.81;5012081;28;19941;-48
2023/04/22 01:25:25;;;;;;;;;;;9.80;61.70;;;5.10;100.00;94934.38;5011983;28;19917;-49
2023/04/22 01:27:53;;;;;;;;;;;9.80;61.60;;;5.07;100.00;94932.22;5020990;28;19955;-49
2023/04/22 01:30:19;;;;;;;;;;;9.70;61.50;;;5.01;100.00;94934.00;5011991;28;19913;-49
2023/04/22 01:32:45;;;;;;;;;;;9.70;61.50;;;4.91;100.00;94933.09;5012754;28;19912;-49
2023/04/22 01:35:11;;;;;;;;;;;9.70;61.50;;;4.90;100.00;94926.22;5031644;28;19943;-49
2023/04/22 01:37:38;;;;;;;;;;;9.60;61.50;;;4.88;100.00;94926.44;5031242;28;19913;-49
2023/04/22 01:40:06;;;;;;;;;;;9.60;61.60;;;4.86;100.00;94926.72;5017401;28;19985;-50
2023/04/22 01:42:32;;;;;;;;;;;9.50;61.70;;;4.82;100.00;94917.66;5011443;28;20019;-49
2023/04/22 01:44:58;;;;;;;;;;;9.50;61.80;;;4.82;100.00;94911.59;5010991;28;20000;-50
2023/04/22 01:47:26;;;;;;;;;;;9.50;61.80;;;4.81;100.00;94908.16;5011598;28;20268;-49
2023/04/22 01:49:52;;;;;;;;;;;9.50;61.80;;;4.77;100.00;94909.69;5011910;28;19916;-49
2023/04/22 01:52:17;;;;;;;;;;;9.40;61.90;;;4.74;100.00;94917.31;5012936;28;19912;-48
2023/04/22 01:54:43;;;;;;;;;;;9.40;62.80;;;4.72;100.00;94909.63;5015638;28;19932;-49
2023/04/22 01:57:12;;;;;;;;;;;9.30;62.00;;;4.70;100.00;94914.38;5014398;28;19909;-49
2023/04/22 01:59:39;;;;;;;;;;;9.30;62.10;;;4.67;100.00;94914.84;5015110;28;19913;-50
2023/04/22 02:02:05;;;;;;;;;;;9.30;62.20;;;4.64;100.00;94912.69;5015273;28;20015;-49
2023/04/22 02:04:31;;;;;;;;;;;9.30;62.20;;;4.62;100.00;94920.84;5014504;28;19917;-51
2023/04/22 02:06:57;;;;;;;;;;;9.30;62.30;;;4.61;100.00;94924.53;5014929;28;19917;-50
2023/04/22 02:09:23;;;;;;;;;;;9.30;62.30;;;4.57;100.00;94930.53;5036576;28;19917;-48
2023/04/22 02:11:48;;;;;;;;;;;9.20;62.30;;;4.59;100.00;94933.72;5034700;28;20328;-48
2023/04/22 02:14:14;;;;;;;;;;;9.20;62.30;;;4.69;100.00;94925.16;5034526;28;19915;-50
2023/04/22 02:16:41;;;;;;;;;;;9.20;62.50;;;4.69;100.00;94928.56;5015910;28;19909;-49
2023/04/22 02:19:07;;;;;;;;;;;9.20;62.50;;;4.63;100.00;94925.06;5014631;28;20264;-49
2023/04/22 02:21:33;;;;;;;;;;;9.20;62.50;;;4.56;100.00;94935.00;5013735;28;19962;-50
2023/04/22 02:23:59;;;;;;;;;;;9.20;62.40;;;4.50;100.00;94928.06;5014736;28;20390;-49
2023/04/22 02:26:25;;;;;;;;;;;9.20;62.50;;;4.47;100.00;94933.81;5013951;28;19909;-52
2023/04/22 02:28:54;;;;;;;;;;;9.20;62.50;;;4.46;100.00;94932.22;5014306;28;19916;-49
2023/04/22 02:31:19;;;;;;;;;;;9.10;62.50;;;4.44;100.00;94928.22;5014780;28;19920;-49
2023/04/22 02:33:45;;;;;;;;;;;9.10;62.60;;;4.44;100.00;94930.84;5013821;28;19913;-49
2023/04/22 02:36:11;;;;;;;;;;;9.10;62.70;;;4.48;100.00;94934.59;5014697;28;19953;-49
2023/04/22 02:38:37;;;;;;;;;;;9.10;62.90;;;4.47;100.00;94930.38;5013946;28;19982;-48
2023/04/22 02:41:03;;;;;;;;;;;9.10;62.90;;;4.44;100.00;94930.84;5014865;28;19909;-48
2023/04/22 02:43:29;;;;;;;;;;;9.00;62.90;;;4.40;100.00;94930.56;5014696;28;19909;-49
2023/04/22 02:45:55;;;;;;;;;;;9.10;63.00;;;4.35;100.00;94928.63;5013646;28;19915;-50
2023/04/22 02:48:21;;;;;;;;;;;9.00;62.90;;;4.33;100.00;94922.00;5014614;28;20004;-49
2023/04/22 02:50:46;;;;;;;;;;;9.00;63.00;;;4.30;100.00;94928.56;5013229;28;19920;-49
2023/04/22 02:53:12;;;;;;;;;;;9.00;62.90;;;4.28;100.00;94920.09;5014435;28;19920;-49
2023/04/22 02:55:40;;;;;;;;;;;8.90;62.90;;;4.26;100.00;94924.81;5014208;28;19909;-54
2023/04/22 02:58:07;;;;;;;;;;;8.90;62.90;;;4.22;100.00;94930.78;5012932;28;20341;-50
2023/04/22 03:00:34;;;;;;;;;;;8.90;63.00;;;4.16;100.00;94925.44;5014233;28;19983;-49
2023/04/22 03:03:00;;;;;;;;;;;8.90;63.00;;;4.10;100.00;94923.75;5013163;28;19909;-50
2023/04/22 03:05:26;;;;;;;;;;;8.80;63.00;;;4.13;100.00;94930.38;5013926;28;19913;-48
2023/04/22 03:07:52;;;;;;;;;;;8.80;63.00;;;4.15;100.00;94933.59;5013724;28;20414;-48
2023/04/22 03:10:18;;;;;;;;;;;8.80;63.10;;;4.11;100.00;94940.38;5013094;28;19920;-48
2023/04/22 03:12:44;;;;;;;;;;;8.80;63.20;;;4.10;100.00;94938.78;5013361;28;19912;-50
2023/04/22 03:15:11;;;;;;;;;;;8.70;63.10;;;4.06;100.00;94949.00;5013033;28;19909;-49
2023/04/22 03:17:36;;;;;;;;;;;8.70;63.10;;;3.99;100.00;94948.38;5013302;28;19959;-49
2023/04/22 03:20:02;;;;;;;;;;;8.70;63.00;;;3.91;100.00;94944.25;5014150;28;20363;-50
2023/04/22 03:22:28;;;;;;;;;;;8.70;63.10;;;3.89;100.00;94943.72;5012307;28;19916;-50
2023/04/22 03:24:54;;;;;;;;;;;8.60;63.80;;;3.90;100.00;94947.16;4994593;28;19909;-51
2023/04/22 03:27:20;;;;;;;;;;;8.60;63.10;;;3.82;100.00;94948.31;5006937;28;19908;-54
2023/04/22 03:29:46;;;;;;;;;;;8.60;63.20;;;3.84;100.00;94961.28;5016770;28;19940;-52
2023/04/22 03:32:11;;;;;;;;;;;8.60;63.20;;;3.79;100.00;94958.53;5013499;28;19955;-52
2023/04/22 03:34:37;;;;;;;;;;;8.50;63.20;;;3.74;100.00;94954.00;5012358;28;20344;-51
2023/04/22 03:37:03;;;;;;;;;;;8.50;63.20;;;3.77;100.00;94958.00;5013388;28;19916;-51
2023/04/22 03:39:29;;;;;;;;;;;8.50;63.30;;;3.66;100.00;94952.53;5012159;28;19917;-54
2023/04/22 03:41:54;;;;;;;;;;;8.40;63.30;;;3.69;100.00;94964.44;5013351;28;20010;-52
2023/04/22 03:44:20;;;;;;;;;;;8.40;63.40;;;3.57;100.00;94967.09;5013029;28;19948;-48
2023/04/22 03:46:46;;;;;;;;;;;8.40;63.40;;;3.56;100.00;94964.72;5011988;28;19913;-53
2023/04/22 03:49:12;;;;;;;;;;;8.30;63.30;;;3.54;100.00;94977.31;5013170;28;19913;-50
2023/04/22 03:51:38;;;;;;;;;;;8.30;63.40;;;3.48;100.00;94971.97;5012389;28;19909;-53
2023/04/22 03:54:03;;;;;;;;;;;8.20;63.50;;;3.52;100.00;94966.25;5013248;28;20287;-48
2023/04/22 03:56:29;;;;;;;;;;;8.20;63.50;;;3.42;100.00;94959.75;5012555;28;19959;-50
2023/04/22 03:58:57;;;;;;;;;;;8.20;63.60;;;3.42;100.00;94953.69;5011782;28;26689;-49
2023/04/22 04:01:23;;;;;;;;;;;8.20;63.60;;;3.54;100.00;94959.72;5006069;28;19909;-50
2023/04/22 04:03:49;;;;;;;;;;;8.20;63.80;;;3.56;100.00;94964.72;5011579;28;20015;-52
2023/04/22 04:06:15;;;;;;;;;;;8.10;63.80;;;3.58;100.00;94960.03;5012429;28;19909;-52
2023/04/22 04:08:40;;;;;;;;;;;8.20;64.00;;;3.55;100.00;94960.50;5011955;28;20287;-48
2023/04/22 04:11:08;;;;;;;;;;;8.20;64.00;;;3.58;100.00;94960.81;5012335;28;20329;-49
2023/04/22 04:13:34;;;;;;;;;;;8.20;64.00;;;3.69;100.00;94962.59;5012441;28;19931;-48
2023/04/22 04:16:00;;;;;;;;;;;8.20;64.20;;;3.72;100.00;94964.75;5010713;28;19909;-52
2023/04/22 04:18:28;;;;;;;;;;;8.20;64.20;;;3.76;100.00;94964.28;5012283;28;20386;-50
2023/04/22 04:20:55;;;;;;;;;;;8.30;64.30;;;3.78;100.00;94970.13;5011872;28;19909;-48
2023/04/22 04:23:21;;;;;;;;;;;8.30;65.10;;;3.77;100.00;94971.16;5012636;28;20341;-53
2023/04/22 04:25:46;;;;;;;;;;;8.30;64.30;;;3.74;100.00;94966.38;5012162;28;19913;-49
2023/04/22 04:28:13;;;;;;;;;;;8.30;64.90;;;3.68;100.00;94968.91;5011106;28;19920;-49
2023/04/22 04:30:40;;;;;;;;;;;8.30;64.10;;;3.61;100.00;94965.63;5012165;28;19909;-50
2023/04/22 04:33:07;;;;;;;;;;;8.30;64.00;;;3.56;100.00;94965.53;5011086;28;19909;-49
2023/04/22 04:35:36;;;;;;;;;;;8.30;63.90;;;3.56;100.00;94972.63;5012644;28;19909;-49
2023/04/22 04:38:04;;;;;;;;;;;8.30;63.90;;;3.53;100.00;94968.63;5012149;28;19915;-50
2023/04/22 04:40:30;;;;;;;;;;;8.30;63.90;;;3.47;100.00;94967.72;5011293;28;19913;-49
2023/04/22 04:42:56;;;;;;;;;;;8.30;63.80;;;3.46;100.00;94960.88;5012081;28;19920;-51
2023/04/22 04:45:23;;;;;;;;;;;8.30;63.90;;;3.39;100.00;94960.22;5011296;28;19913;-52
2023/04/22 04:47:53;;;;;;;;;;;8.30;63.80;;;3.32;100.00;94975.34;5012081;28;20272;-50
2023/04/22 04:50:19;;;;;;;;;;;8.30;64.60;;;3.36;100.00;94965.94;5012698;28;20310;-49
2023/04/22 04:52:48;;;;;;;;;;;8.20;63.80;;;3.34;100.00;94968.00;5028755;28;20848;-49
2023/04/22 04:55:15;;;;;;;;;;;8.20;63.70;;;3.32;100.00;94975.34;5032159;28;19908;-49
2023/04/22 04:57:45;;;;;;;;;;;8.20;63.80;;;3.30;100.00;94987.16;5021125;28;19952;-49
2023/04/22 05:00:13;;;;;;;;;;;8.20;63.80;;;3.37;100.00;94988.59;4992532;28;19913;-49
2023/04/22 05:02:39;;;;;;;;;;;8.20;63.90;;;3.46;100.00;94981.13;4992313;28;19909;-48
2023/04/22 05:05:06;;;;;;;;;;;8.20;64.00;;;3.48;100.00;94982.50;5012246;28;20342;-50
2023/04/22 05:07:32;;;;;;;;;;;8.30;64.10;;;3.61;100.00;94978.00;5011730;28;19925;-48
2023/04/22 05:09:59;;;;;;;;;;;8.40;64.10;;;3.60;100.00;94979.00;5011181;28;19959;-48
2023/04/22 05:12:25;;;;;;;;;;;8.40;64.10;;;3.63;100.00;94976.72;5011472;28;19909;-49
2023/04/22 05:14:52;;;;;;;;;;;8.40;64.10;;;3.69;100.00;94986.31;5011477;28;21310;-48
2023/04/22 05:17:18;;;;;;;;;;;8.50;64.10;;;3.74;100.00;94979.53;5011753;28;19916;-49
2023/04/22 05:19:44;;;;;;;;;;;8.50;64.10;;;3.73;100.00;94978.75;5011785;28;19913;-53
2023/04/22 05:22:10;;;;;;;;;;;8.60;64.10;;;3.73;100.00;94981.38;5011023;28;20020;-48
2023/04/22 05:24:36;;;;;;;;;;;8.60;64.10;;;3.77;100.00;94977.22;5012341;28;19920;-49
2023/04/22 05:27:02;;;;;;;;;;;8.70;64.10;;;3.81;100.00;94978.34;5012410;28;19916;-50
2023/04/22 05:29:28;;;;;;;;;;;8.70;64.00;;;3.85;100.00;94989.22;5014349;28;19909;-52
2023/04/22 05:31:54;;;;;;;;;;;8.80;64.00;;;3.88;100.00;95001.91;5005610;28;19909;-49
2023/04/22 05:34:20;;;;;;;;;;;8.80;63.90;;;3.94;100.00;95000.97;5012523;28;19920;-48
2023/04/22 05:36:45;;;;;;;;;;;8.90;64.00;;;4.01;100.00;95003.47;5013945;28;20007;-50
2023/04/22 05:39:11;;;;;;;;;;;9.00;64.00;;;4.09;100.00;94997.81;5013275;28;19922;-50
2023/04/22 05:41:37;;;;;;;;;;;9.10;64.00;;;4.19;100.00;95008.53;5015283;28;20062;-50
2023/04/22 05:44:03;;;;;;;;;;;9.20;63.90;;;4.26;100.00;95009.19;5015603;28;19995;-48
2023/04/22 05:46:29;;;;;;;;;;;9.30;63.90;;;4.34;100.00;95011.41;5014519;28;19954;-49
2023/04/22 05:48:55;;;;;;;;;;;9.40;63.90;;;4.45;100.00;95001.84;5013016;28;20140;-49
2023/04/22 05:51:22;;;;;;;;;;;9.50;63.90;;;4.59;100.00;95011.00;5014630;28;19909;-49
2023/04/22 05:53:49;;;;;;;;;;;9.70;64.00;;;4.73;100.00;95003.59;5013669;28;20352;-49
2023/04/22 05:56:15;;;;;;;;;;;9.80;63.90;;;4.85;100.00;95001.63;5013474;28;19909;-49
2023/04/22 05:58:41;;;;;;;;;;;9.90;63.90;;;4.99;100.00;95002.09;5012020;28;19956;-51
2023/04/22 06:01:08;;;;;;;;;;;10.00;63.80;;;5.09;100.00;95012.78;5015358;28;19975;-49
2023/04/22 06:03:33;;;;;;;;;;;10.10;63.90;;;5.19;100.00;95017.41;5010169;28;19909;-52
2023/04/22 06:05:59;;;;;;;;;;;10.20;63.90;;;5.25;100.00;95011.16;5014140;28;20414;-48
2023/04/22 06:08:26;;;;;;;;;;;10.40;64.00;;;5.36;100.00;95019.19;5012705;28;19944;-51
2023/04/22 06:10:51;;;;;;;;;;;10.50;63.90;;;5.44;100.00;95016.13;5012590;28;19913;-51
2023/04/22 06:13:17;;;;;;;;;;;10.60;63.90;;;5.46;100.00;95019.34;5014074;28;19917;-53
2023/04/22 06:15:43;;;;;;;;;;;10.70;63.80;;;5.51;100.00;95016.75;5012764;28;19948;-51
2023/04/22 06:18:08;;;;;;;;;;;10.80;63.80;;;5.68;100.00;95022.78;5012039;28;20043;-51
2023/04/22 06:20:35;;;;;;;;;;;10.90;63.70;;;5.85;100.00;95027.19;5012084;28;20351;-52
2023/04/22 06:23:04;;;;;;;;;;;11.10;63.70;;;6.01;100.00;95021.03;5013417;28;19917;-52
2023/04/22 06:25:31;;;;;;;;;;;11.20;63.70;;;6.18;100.00;95021.72;5012657;28;19913;-53
2023/04/22 06:27:58;;;;;;;;;;;11.40;63.80;;;6.38;100.00;95020.31;5011532;28;20307;-52
2023/04/22 06:30:25;;;;;;;;;;;11.70;63.90;;;6.62;100.00;95021.59;5013231;28;19954;-53
2023/04/22 06:32:53;;;;;;;;;;;11.90;63.80;;;6.93;100.00;95024.47;5017995;28;19919;-54
2023/04/22 06:35:20;;;;;;;;;;;12.20;63.80;;;7.28;100.00;95033.66;5012989;28;19956;-52
2023/04/22 06:37:50;;;;;;;;;;;12.60;63.80;;;7.56;100.00;95025.34;5012253;28;20015;-51
2023/04/22 06:40:16;;;;;;;;;;;12.90;63.70;;;7.81;100.00;95026.50;5012873;28;20358;-54
2023/04/22 06:42:41;;;;;;;;;;;13.20;63.60;;;7.95;100.00;95035.53;5013957;28;19909;-55
2023/04/22 06:45:11;;;;;;;;;;;13.50;63.50;;;8.22;100.00;95035.34;5013378;28;20020;-52
2023/04/22 06:47:38;;;;;;;;;;;13.80;63.20;;;8.49;100.00;95040.47;5013315;28;19948;-55
2023/04/22 06:50:09;;;;;;;;;;;14.20;62.90;;;8.76;100.00;95044.72;5014342;28;19909;-50
2023/04/22 06:52:35;;;;;;;;;;;14.50;62.50;;;8.96;98.52;95033.28;5012793;28;19924;-50
2023/04/22 06:55:04;;;;;;;;;;;14.80;62.10;;;9.22;96.81;95031.41;5014210;28;19913;-51
2023/04/22 06:57:30;;;;;;;;;;;15.00;62.60;;;9.46;95.84;95037.72;5013443;28;20376;-50
2023/04/22 06:59:56;;;;;;;;;;;15.30;61.50;;;9.72;95.01;95046.41;5028713;28;20009;-52
2023/04/22 07:02:22;;;;;;;;;;;15.60;61.20;;;9.97;92.65;95039.41;5013829;28;20338;-53
2023/04/22 07:04:47;;;;;;;;;;;15.80;60.90;;;10.22;89.21;95043.78;5012804;28;19916;-51
2023/04/22 07:07:13;;;;;;;;;;;16.20;60.60;;;10.37;90.01;95043.72;5014066;28;20372;-50
2023/04/22 07:09:39;;;;;;;;;;;16.50;60.20;;;10.66;87.01;95053.66;5015068;28;19916;-53
2023/04/22 07:12:05;;;;;;;;;;;16.80;59.80;;;10.89;84.88;95047.59;5014060;28;19932;-50
2023/04/22 07:14:32;;;;;;;;;;;17.10;59.50;;;11.15;82.95;95044.72;5013511;28;19916;-52
2023/04/22 07:16:58;;;;;;;;;;;17.50;59.10;;;11.49;81.23;95041.19;5012962;28;19916;-50
2023/04/22 07:19:25;;;;;;;;;;;17.80;58.90;;;11.86;79.74;95047.75;5013351;28;19925;-51
2023/04/22 07:21:51;;;;;;;;;;;18.10;58.50;;;12.26;79.33;95049.13;5012740;28;19939;-52
2023/04/22 07:24:17;;;;;;;;;;;18.40;58.30;;;12.60;76.31;95040.91;5028577;28;19951;-50
2023/04/22 07:26:44;;;;;;;;;;;18.70;58.00;;;12.85;75.74;95044.25;5013071;28;19913;-54
2023/04/22 07:29:11;;;;;;;;;;;19.00;57.80;;;12.84;74.34;95040.78;5013024;28;19935;-55
2023/04/22 07:31:38;;;;;;;;;;;19.20;57.50;;;13.02;74.84;95044.50;5013905;28;20387;-52
2023/04/22 07:34:04;;;;;;;;;;;19.40;57.20;;;13.20;72.81;95041.00;5012755;28;19958;-53
2023/04/22 07:36:31;;;;;;;;;;;19.60;56.90;;;13.45;71.98;95043.56;4969868;28;19912;-50
2023/04/22 07:38:58;;;;;;;;;;;19.80;56.60;;;13.44;70.25;95048.09;5018132;28;19920;-52
2023/04/22 07:41:23;;;;;;;;;;;20.00;56.20;;;13.65;71.04;95051.97;5013182;28;20011;-52
2023/04/22 07:43:49;;;;;;;;;;;20.10;55.90;;;13.90;69.54;95055.25;5012894;28;20011;-52
2023/04/22 07:46:15;;;;;;;;;;;20.40;55.80;;;14.02;68.48;95050.22;5012361;28;19913;-52
2023/04/22 07:48:41;;;;;;;;;;;20.60;55.60;;;14.35;67.04;95050.88;5011830;28;19963;-51
2023/04/22 07:51:07;;;;;;;;;;;20.90;55.40;;;14.38;66.52;95048.66;5012157;28;20299;-51
2023/04/22 07:53:32;;;;;;;;;;;21.20;55.60;;;14.60;66.35;95053.31;5012997;28;19909;-53
2023/04/22 07:56:01;;;;;;;;;;;21.40;55.20;;;14.84;64.63;95047.66;5013098;28;19948;-50
2023/04/22 07:58:27;;;;;;;;;;;21.70;54.40;;;15.16;62.82;95051.97;5011773;28;19913;-51
2023/04/22 08:00:52;;;;;;;;;;;22.00;54.30;;;15.33;60.31;95048.63;5012686;28;20269;-51
2023/04/22 08:03:18;;;;;;;;;;;22.20;53.90;;;15.48;60.18;95056.25;5011649;28;19909;-50
2023/04/22 08:05:44;;;;;;;;;;;22.40;53.40;;;15.52;59.91;95051.09;5012621;28;19909;-51
2023/04/22 08:08:10;;;;;;;;;;;22.60;53.10;;;15.62;57.22;95056.97;5012746;28;20295;-51
2023/04/22 08:10:35;;;;;;;;;;;22.70;52.70;;;15.58;58.16;95064.06;5012090;28;19945;-52
2023/04/22 08:13:01;;;;;;;;;;;22.80;52.30;;;15.84;59.14;95061.53;5012438;28;19909;-52
2023/04/22 08:15:27;;;;;;;;;;;22.80;52.70;;;16.08;59.67;95068.41;5011702;28;19916;-51
2023/04/22 08:17:53;;;;;;;;;;;22.90;51.90;;;16.15;57.51;95061.47;5010858;28;19917;-50
2023/04/22 08:20:19;;;;;;;;;;;23.00;51.60;;;16.21;57.65;95064.81;5012937;28;20405;-51
2023/04/22 08:22:45;;;;;;;;;;;23.10;51.20;;;16.57;56.72;95061.84;5011295;28;19916;-51
2023/04/22 08:25:11;;;;;;;;;;;23.20;51.00;;;16.78;56.48;95056.69;5012375;28;20317;-54
2023/04/22 08:27:38;;;;;;;;;;;23.40;50.90;;;16.96;54.96;95056.69;5011429;28;19916;-52
2023/04/22 08:30:06;;;;;;;;;;;23.70;50.60;;;17.20;55.13;95053.50;5012000;28;19909;-50
2023/04/22 08:32:32;;;;;;;;;;;23.90;50.30;;;17.29;54.02;95055.06;5012381;28;19913;-51
2023/04/22 08:34:57;;;;;;;;;;;24.10;50.00;;;17.31;54.38;95052.06;5012448;28;19932;-53
2023/04/22 08:37:24;;;;;;;;;;;24.30;49.70;;;17.47;53.07;95049.66;5012036;28;20260;-53
2023/04/22 08:39:50;;;;;;;;;;;24.60;49.30;;;17.59;53.24;95036.31;5011010;28;20005;-55
2023/04/22 08:42:19;;;;;;;;;;;24.80;49.10;;;18.05;52.16;95042.81;5012500;28;20400;-51
2023/04/22 08:44:45;;;;;;;;;;;25.00;48.90;;;18.48;49.71;95037.16;5011090;28;20345;-53
2023/04/22 08:47:15;;;;;;;;;;;25.30;48.70;;;18.73;49.86;95043.50;5012445;28;19913;-53
2023/04/22 08:49:42;;;;;;;;;;;25.60;48.50;;;19.03;49.06;95046.13;5012429;28;20299;-51
2023/04/22 08:52:10;;;;;;;;;;;25.80;47.90;;;19.15;47.30;95048.88;5023547;28;20017;-51
2023/04/22 08:54:39;;;;;;;;;;;26.00;47.40;;;19.09;46.94;95057.53;5031341;28;19919;-50
2023/04/22 08:57:06;;;;;;;;;;;26.30;47.30;;;19.10;47.35;95051.00;5026348;28;19908;-50
2023/04/22 08:59:34;;;;;;;;;;;26.40;47.00;;;19.09;47.15;95058.31;5011951;28;20031;-51
2023/04/22 09:02:03;;;;;;;;;;;26.60;46.20;;;18.91;47.22;95051.47;5016302;28;19924;-50
2023/04/22 09:04:29;;;;;;;;;;;26.60;45.50;;;19.26;47.15;95046.53;5013450;28;20279;-50
2023/04/22 09:06:56;;;;;;;;;;;26.70;45.50;;;19.56;46.34;95036.41;4998747;28;19983;-51
2023/04/22 09:09:22;;;;;;;;;;;26.90;45.50;;;19.59;46.67;95035.72;5004038;28;19909;-51
2023/04/22 09:11:48;;;;;;;;;;;27.10;46.10;;;19.59;47.99;95030.34;5018563;28;19913;-52
2023/04/22 09:14:16;;;;;;;;;;;27.40;45.20;;;19.97;46.19;95020.38;5018773;28;19919;-56
2023/04/22 09:16:47;;;;;;;;;;;27.50;44.90;;;20.12;44.64;95019.72;5033957;28;19915;-52
2023/04/22 09:19:14;;;;;;;;;;;27.70;44.80;;;20.58;44.52;95022.25;5038497;28;20376;-50
2023/04/22 09:21:41;;;;;;;;;;;27.80;44.60;;;20.64;44.08;95021.69;5029014;28;19945;-50
2023/04/22 09:24:09;;;;;;;;;;;27.90;44.40;;;20.71;42.45;95019.16;5018552;28;19959;-54
2023/04/22 09:26:41;;;;;;;;;;;28.10;44.10;;;20.85;43.92;95013.38;5016897;28;19908;-54
2023/04/22 09:29:12;;;;;;;;;;;28.20;44.00;;;20.98;43.75;95017.63;5017294;28;19916;-53
2023/04/22 09:31:39;;;;;;;;;;;28.30;43.80;;;20.99;42.36;95010.28;5017462;28;20334;-51
2023/04/22 09:34:06;;;;;;;;;;;28.40;43.60;;;21.17;41.64;95016.19;5028699;28;19908;-50
2023/04/22 09:36:39;;;;;;;;;;;28.50;43.40;;;20.98;41.74;95006.00;5037010;28;20012;-51
2023/04/22 09:39:07;;;;;;;;;;;28.50;43.20;;;21.06;40.78;95005.09;5033464;28;19920;-50
2023/04/22 09:41:39;;;;;;;;;;;28.70;43.10;;;21.21;40.70;95001.59;5018618;28;19971;-51
2023/04/22 09:44:15;;;;;;;;;;;28.80;42.90;;;21.24;41.28;95000.91;5018660;28;20338;-50
2023/04/22 09:46:46;;;;;;;;;;;28.90;42.60;;;21.49;40.29;94995.38;5016145;28;19916;-50
2023/04/22 09:49:15;;;;;;;;;;;29.00;42.30;;;21.38;39.80;94986.22;5018350;28;20291;-52
2023/04/22 09:51:41;;;;;;;;;;;29.10;42.00;;;21.41;38.81;94983.59;5017817;28;19909;-54
2023/04/22 09:54:09;;;;;;;;;;;29.20;41.50;;;21.48;38.69;94986.47;5018307;28;19962;-52
2023/04/22 09:56:52;;;;;;;;;;;29.40;41.40;;;21.75;38.72;94991.38;5016281;28;19958;-54
2023/04/22 09:59:24;;;;;;;;;;;29.60;41.20;;;22.16;38.28;94996.28;5011012;28;20039;-53
2023/04/22 10:02:02;;;;;;;;;;;29.80;41.70;;;22.38;36.80;95004.91;5017569;28;19915;-53
2023/04/22 10:04:28;;;;;;;;;;;30.00;40.90;;;22.59;35.36;94999.97;5017120;28;19991;-51
2023/04/22 10:06:55;;;;;;;;;;;30.20;40.60;;;22.60;35.62;94995.31;5018178;28;19917;-50
2023/04/22 10:09:24;;;;;;;;;;;30.30;40.10;;;22.72;36.60;94992.47;5017059;28;19916;-50
2023/04/22 10:11:52;;;;;;;;;;;30.40;39.90;;;22.92;36.38;94989.75;5017117;28;19916;-52
2023/04/22 10:14:22;;;;;;;;;;;30.50;40.00;;;23.00;35.23;94976.00;5014797;28;19915;-50
2023/04/22 10:16:53;;;;;;;;;;;30.60;39.80;;;23.38;34.88;94977.09;5013989;28;19915;-52
2023/04/22 10:19:22;;;;;;;;;;;30.80;39.70;;;23.53;33.34;94983.53;5015196;28;20368;-50
2023/04/22 10:21:55;;;;;;;;;;;31.00;39.80;;;23.70;33.94;94991.25;5014068;28;20292;-53
2023/04/22 10:24:21;;;;;;;;;;;31.10;38.90;;;23.44;33.30;94988.41;5013795;28;19909;-51
2023/04/22 10:26:58;;;;;;;;;;;31.20;38.60;;;23.53;33.30;94991.69;5013356;28;19918;-53
2023/04/22 10:29:35;;;;;;;;;;;31.30;38.20;;;23.94;33.37;94990.09;5014684;28;19963;-50
2023/04/22 10:32:17;;;;;;;;;;;31.50;38.30;;;24.15;33.54;94986.13;5013905;28;20269;-50
2023/04/22 10:34:48;;;;;;;;;;;31.80;38.20;;;24.54;32.40;94975.03;5013962;28;20291;-51
2023/04/22 10:37:18;;;;;;;;;;;32.10;37.90;;;24.67;31.93;94977.19;5013319;28;20376;-51
2023/04/22 10:40:05;;;;;;;;;;;32.30;37.20;;;24.83;31.16;94981.66;5013781;28;19913;-50
2023/04/22 10:42:31;;;;;;;;;;;32.60;37.10;;;24.86;30.92;94978.19;5014481;28;20326;-50
2023/04/22 10:45:03;;;;;;;;;;;32.80;36.90;;;24.58;32.01;94973.16;4964349;28;25073;-50
2023/04/22 10:47:34;;;;;;;;;;;33.00;36.70;;;24.61;31.38;94966.97;5011063;28;19982;-50
2023/04/22 10:50:27;;;;;;;;;;;33.00;36.20;;;24.94;31.50;94958.03;5011021;28;19916;-50
2023/04/22 10:53:02;;;;;;;;;;;33.20;36.10;;;24.73;31.99;94955.09;5013919;28;19955;-50
2023/04/22 10:55:51;;;;;;;;;;;33.30;36.00;;;24.98;29.16;94953.44;5013391;28;20607;-52
2023/04/22 10:58:23;;;;;;;;;;;33.50;35.80;;;25.09;28.79;94956.25;5013580;28;20440;-50
2023/04/22 11:00:58;;;;;;;;;;;33.60;35.60;;;25.17;29.48;94951.72;5014302;28;19913;-51
2023/04/22 11:03:27;;;;;;;;;;;33.70;35.40;;;25.20;30.12;94970.06;5027850;28;19909;-51
2023/04/22 11:06:21;;;;;;;;;;;33.90;35.20;;;24.87;31.50;94957.97;5033796;28;19959;-51
2023/04/22 11:08:48;;;;;;;;;;;34.00;35.00;;;25.00;31.48;94962.00;5021258;28;19921;-51
2023/04/22 11:11:18;;;;;;;;;;;34.10;35.50;;;25.13;31.35;94965.28;5012399;28;19917;-51
2023/04/22 11:13:44;;;;;;;;;;;34.30;34.80;;;25.55;32.19;94964.94;5012722;28;19944;-52
2023/04/22 11:16:10;;;;;;;;;;;34.40;34.60;;;25.78;31.60;94962.03;5013304;28;19909;-53
2023/04/22 11:18:37;;;;;;;;;;;34.50;34.50;;;25.66;32.30;94969.72;5013359;28;19913;-51
2023/04/22 11:21:06;;;;;;;;;;;34.60;34.20;;;25.76;32.91;94971.72;5024901;28;19931;-51
2023/04/22 11:23:31;;;;;;;;;;;34.70;34.20;;;25.96;32.13;94975.06;5032134;28;20322;-50